createdAt,value
2022-10-13T00:00:06.291Z,16.34
2022-10-13T00:02:32.829Z,16.34
2022-10-13T00:04:59.299Z,16.32
2022-10-13T00:07:25.741Z,16.23
2022-10-13T00:09:52.270Z,16.27
2022-10-13T00:12:19.062Z,16.24
2022-10-13T00:14:45.845Z,16.24
2022-10-13T00:17:12.340Z,16.26
2022-10-13T00:19:38.843Z,16.10
2022-10-13T00:22:05.380Z,16.23
2022-10-13T00:24:31.959Z,16.36
2022-10-13T00:26:58.435Z,16.46
2022-10-13T00:29:24.944Z,16.52
2022-10-13T00:31:51.404Z,16.61
2022-10-13T00:34:17.883Z,16.64
2022-10-13T00:36:44.386Z,16.67
2022-10-13T00:39:10.852Z,16.56
2022-10-13T00:41:37.339Z,16.38
2022-10-13T00:44:05.863Z,16.27
2022-10-13T00:46:34.523Z,16.08
2022-10-13T00:49:05.726Z,16.02
2022-10-13T00:51:34.267Z,16.07
2022-10-13T00:54:01.958Z,15.86
2022-10-13T00:56:29.367Z,15.81
2022-10-13T00:58:56.328Z,15.67
2022-10-13T01:01:22.901Z,15.60
2022-10-13T01:03:49.405Z,15.34
2022-10-13T01:06:19.783Z,15.17
2022-10-13T01:08:49.112Z,15.07
2022-10-13T01:11:18.427Z,15.02
2022-10-13T01:14:00.315Z,15.04
2022-10-13T01:16:40.475Z,14.92
2022-10-13T01:19:25.306Z,14.62
2022-10-13T01:22:07.960Z,14.60
2022-10-13T01:24:45.321Z,14.74
2022-10-13T01:27:19.911Z,14.95
2022-10-13T01:29:58.581Z,15.06
2022-10-13T01:32:37.084Z,14.96
2022-10-13T01:35:13.065Z,15.24
2022-10-13T01:37:57.984Z,15.36
2022-10-13T01:40:28.996Z,15.45
2022-10-13T01:43:01.478Z,15.53
2022-10-13T01:45:55.714Z,15.72
2022-10-13T01:48:22.241Z,15.66
2022-10-13T01:50:48.860Z,15.80
2022-10-13T01:53:16.020Z,15.89
2022-10-13T01:55:53.689Z,15.86
2022-10-13T01:58:20.920Z,15.72
2022-10-13T02:01:01.325Z,15.78
2022-10-13T02:03:39.224Z,15.74
2022-10-13T02:06:22.509Z,15.89
2022-10-13T02:08:56.656Z,15.93
2022-10-13T02:11:24.103Z,15.92
2022-10-13T02:14:05.700Z,15.91
2022-10-13T02:16:36.076Z,16.01
2022-10-13T02:19:05.155Z,16.08
2022-10-13T02:21:32.345Z,15.96
2022-10-13T02:23:59.100Z,15.83
2022-10-13T02:26:25.948Z,15.77
2022-10-13T02:28:52.547Z,15.70
2022-10-13T02:31:19.122Z,15.78
2022-10-13T02:33:45.586Z,15.78
2022-10-13T02:36:12.080Z,15.81
2022-10-13T02:38:38.562Z,15.59
2022-10-13T02:41:05.119Z,15.45
2022-10-13T02:43:31.626Z,15.45
2022-10-13T02:45:58.081Z,15.30
2022-10-13T02:48:24.539Z,15.28
2022-10-13T02:50:51.186Z,15.38
2022-10-13T02:53:17.666Z,15.57
2022-10-13T02:55:44.137Z,15.55
2022-10-13T02:58:10.596Z,15.63
2022-10-13T03:00:37.351Z,15.71
2022-10-13T03:03:04.101Z,15.66
2022-10-13T03:05:30.587Z,15.55
2022-10-13T03:07:57.094Z,15.60
2022-10-13T03:10:23.606Z,15.58
2022-10-13T03:12:50.164Z,15.69
2022-10-13T03:15:16.689Z,15.82
2022-10-13T03:17:43.212Z,15.66
2022-10-13T03:20:10.206Z,15.72
2022-10-13T03:22:36.685Z,15.70
2022-10-13T03:25:03.470Z,15.76
2022-10-13T03:27:30.484Z,15.83
2022-10-13T03:29:57.247Z,15.84
2022-10-13T03:32:23.748Z,15.46
2022-10-13T03:34:50.508Z,15.43
2022-10-13T03:37:17.199Z,15.67
2022-10-13T03:39:43.731Z,15.65
2022-10-13T03:42:10.387Z,15.71
2022-10-13T03:44:36.900Z,15.76
2022-10-13T03:47:03.381Z,15.70
2022-10-13T03:49:29.886Z,15.82
2022-10-13T03:51:56.605Z,15.87
2022-10-13T03:54:23.064Z,15.90
2022-10-13T03:56:49.576Z,15.96
2022-10-13T03:59:16.034Z,16.05
2022-10-13T04:01:42.623Z,16.11
2022-10-13T04:04:11.501Z,16.11
2022-10-13T04:06:38.102Z,16.18
2022-10-13T04:09:04.825Z,16.20
2022-10-13T04:11:31.675Z,16.19
2022-10-13T04:13:58.598Z,16.13
2022-10-13T04:16:27.790Z,16.14
2022-10-13T04:18:58.240Z,16.13
2022-10-13T04:21:24.824Z,16.14
2022-10-13T04:23:51.566Z,16.15
2022-10-13T04:26:20.681Z,16.16
2022-10-13T04:28:48.767Z,16.12
2022-10-13T04:31:15.449Z,16.00
2022-10-13T04:33:42.033Z,15.89
2022-10-13T04:36:10.807Z,15.72
2022-10-13T04:38:37.299Z,15.83
2022-10-13T04:41:05.019Z,15.89
2022-10-13T04:43:32.379Z,15.63
2022-10-13T04:46:02.832Z,15.59
2022-10-13T04:48:29.317Z,15.50
2022-10-13T04:51:03.856Z,15.65
2022-10-13T04:53:31.418Z,15.72
2022-10-13T04:56:01.685Z,15.76
2022-10-13T04:58:28.303Z,15.75
2022-10-13T05:00:54.983Z,15.62
2022-10-13T05:03:21.701Z,15.54
2022-10-13T05:05:48.191Z,15.34
2022-10-13T05:08:14.757Z,15.17
2022-10-13T05:10:41.246Z,15.03
2022-10-13T05:13:07.825Z,14.95
2022-10-13T05:15:34.410Z,15.06
2022-10-13T05:18:00.897Z,15.11
2022-10-13T05:20:27.417Z,15.12
2022-10-13T05:22:53.927Z,15.12
2022-10-13T05:25:20.391Z,14.88
2022-10-13T05:27:46.938Z,14.81
2022-10-13T05:30:13.645Z,14.81
2022-10-13T05:32:40.164Z,14.86
2022-10-13T05:35:07.006Z,14.88
2022-10-13T05:37:33.477Z,15.03
2022-10-13T05:40:00.189Z,15.00
2022-10-13T05:42:28.525Z,15.01
2022-10-13T05:44:55.010Z,15.01
2022-10-13T05:47:21.744Z,15.05
2022-10-13T05:49:48.249Z,15.14
2022-10-13T05:52:14.708Z,15.27
2022-10-13T05:54:48.379Z,15.25
2022-10-13T05:57:30.902Z,15.33
2022-10-13T06:00:07.130Z,15.32
2022-10-13T06:02:38.787Z,15.28
2022-10-13T06:05:12.507Z,15.28
2022-10-13T06:07:42.618Z,15.35
2022-10-13T06:10:10.006Z,15.33
2022-10-13T06:12:36.918Z,15.35
2022-10-13T06:15:04.460Z,15.35
2022-10-13T06:17:31.222Z,15.34
2022-10-13T06:19:57.949Z,15.38
2022-10-13T06:22:24.467Z,15.29
2022-10-13T06:24:51.236Z,15.34
2022-10-13T06:27:18.026Z,15.32
2022-10-13T06:29:44.560Z,15.28
2022-10-13T06:32:11.606Z,15.21
2022-10-13T06:34:38.189Z,15.23
2022-10-13T06:37:04.705Z,15.30
2022-10-13T06:39:31.242Z,15.46
2022-10-13T06:41:57.684Z,15.61
2022-10-13T06:44:24.277Z,15.75
2022-10-13T06:46:51.024Z,15.88
2022-10-13T06:49:17.674Z,16.04
2022-10-13T06:51:44.490Z,16.12
2022-10-13T06:54:10.982Z,16.08
2022-10-13T06:56:37.505Z,15.89
2022-10-13T06:59:05.256Z,15.72
2022-10-13T07:01:31.866Z,15.82
2022-10-13T07:03:59.977Z,16.02
2022-10-13T07:06:26.444Z,16.25
2022-10-13T07:08:53.344Z,16.42
2022-10-13T07:11:20.066Z,16.52
2022-10-13T07:13:47.246Z,16.62
2022-10-13T07:16:14.651Z,16.56
2022-10-13T07:18:42.225Z,16.58
2022-10-13T07:21:09.588Z,16.33
2022-10-13T07:23:36.238Z,16.29
2022-10-13T07:26:07.566Z,16.32
2022-10-13T07:28:34.175Z,16.49
2022-10-13T07:31:00.860Z,16.66
2022-10-13T07:33:27.384Z,16.90
2022-10-13T07:35:54.425Z,17.03
2022-10-13T07:38:21.057Z,17.21
2022-10-13T07:40:47.597Z,17.31
2022-10-13T07:43:14.189Z,17.45
2022-10-13T07:45:40.867Z,17.30
2022-10-13T07:48:07.515Z,17.42
2022-10-13T07:50:34.077Z,17.62
2022-10-13T07:53:00.597Z,17.71
2022-10-13T07:55:28.143Z,17.82
2022-10-13T07:57:55.785Z,17.92
2022-10-13T08:00:22.334Z,18.05
2022-10-13T08:02:51.966Z,17.89
2022-10-13T08:05:20.774Z,18.09
2022-10-13T08:07:47.375Z,18.31
2022-10-13T08:10:13.989Z,18.49
2022-10-13T08:12:40.542Z,18.71
2022-10-13T08:15:08.548Z,18.99
2022-10-13T08:17:34.993Z,19.17
2022-10-13T08:20:02.141Z,19.25
2022-10-13T08:22:28.768Z,19.13
2022-10-13T08:24:55.350Z,18.92
2022-10-13T08:27:26.666Z,18.94
2022-10-13T08:30:04.890Z,18.60
2022-10-13T08:32:31.646Z,18.50
2022-10-13T08:34:58.187Z,18.35
2022-10-13T08:37:24.666Z,18.54
2022-10-13T08:39:51.232Z,18.69
2022-10-13T08:42:20.630Z,18.89
2022-10-13T08:45:35.846Z,18.94
2022-10-13T08:47:48.644Z,18.92
2022-10-13T08:50:18.603Z,19.12
2022-10-13T08:52:51.120Z,19.03
2022-10-13T08:55:23.933Z,18.89
2022-10-13T08:57:50.691Z,18.45
2022-10-13T09:00:17.825Z,18.22
2022-10-13T09:02:44.913Z,18.34
2022-10-13T09:05:21.960Z,18.76
2022-10-13T09:07:49.245Z,18.98
2022-10-13T09:10:16.174Z,18.95
2022-10-13T09:12:42.695Z,19.29
2022-10-13T09:15:11.664Z,19.56
2022-10-13T09:17:39.917Z,19.69
2022-10-13T09:20:08.198Z,19.93
2022-10-13T09:22:39.694Z,20.11
2022-10-13T09:25:21.389Z,20.05
2022-10-13T09:27:52.634Z,19.82
2022-10-13T09:30:41.238Z,19.43
2022-10-13T09:33:07.626Z,19.65
2022-10-13T09:35:35.473Z,19.76
2022-10-13T09:38:03.427Z,19.60
2022-10-13T09:40:30.251Z,19.47
2022-10-13T09:42:58.363Z,19.51
2022-10-13T09:45:26.428Z,19.92
2022-10-13T09:48:18.313Z,20.16
2022-10-13T09:50:49.758Z,20.05
2022-10-13T09:53:28.247Z,19.86
2022-10-13T09:56:47.382Z,20.04
2022-10-13T09:59:28.740Z,19.60
2022-10-13T10:01:56.184Z,19.19
2022-10-13T10:04:26.391Z,19.19
2022-10-13T10:06:52.917Z,19.10
2022-10-13T10:09:36.019Z,18.99
2022-10-13T10:12:04.768Z,19.42
2022-10-13T10:14:38.775Z,19.01
2022-10-13T10:17:20.551Z,18.77
2022-10-13T10:20:01.806Z,18.74
2022-10-13T10:22:36.072Z,18.75
2022-10-13T10:25:24.283Z,18.55
2022-10-13T10:28:17.043Z,18.40
2022-10-13T10:30:50.477Z,18.72
2022-10-13T10:33:23.443Z,19.12
2022-10-13T10:36:04.116Z,19.24
2022-10-13T10:38:43.247Z,19.47
2022-10-13T10:41:44.659Z,19.62
2022-10-13T10:44:20.468Z,19.81
2022-10-13T10:46:49.826Z,19.90
2022-10-13T10:49:27.176Z,20.29
2022-10-13T10:51:54.012Z,20.14
2022-10-13T10:54:32.005Z,20.48
2022-10-13T10:57:03.437Z,20.76
2022-10-13T11:00:03.983Z,20.65
2022-10-13T11:02:43.227Z,20.52
2022-10-13T11:05:10.208Z,20.32
2022-10-13T11:07:39.721Z,20.64
2022-10-13T11:10:15.457Z,20.97
2022-10-13T11:12:48.284Z,21.05
2022-10-13T11:15:21.657Z,21.18
2022-10-13T11:17:48.238Z,21.07
2022-10-13T11:20:17.419Z,20.98
2022-10-13T11:23:04.260Z,20.95
2022-10-13T11:25:35.572Z,21.17
2022-10-13T11:28:22.064Z,21.30
2022-10-13T11:31:14.646Z,21.24
2022-10-13T11:33:41.023Z,21.23
2022-10-13T11:36:41.888Z,21.14
2022-10-13T11:39:26.684Z,20.96
2022-10-13T11:42:11.771Z,21.05
2022-10-13T11:45:00.080Z,21.12
2022-10-13T11:48:04.012Z,20.93
2022-10-13T11:50:43.184Z,21.04
2022-10-13T11:53:33.009Z,21.00
2022-10-13T11:56:00.510Z,20.86
2022-10-13T11:58:28.350Z,20.91
2022-10-13T12:01:05.926Z,21.02
2022-10-13T12:03:33.725Z,20.80
2022-10-13T12:06:28.209Z,20.94
2022-10-13T12:08:54.680Z,21.08
2022-10-13T12:11:26.930Z,21.16
2022-10-13T12:13:54.269Z,21.32
2022-10-13T12:16:21.153Z,21.46
2022-10-13T12:18:48.101Z,21.51
2022-10-13T12:21:22.506Z,21.34
2022-10-13T12:23:50.972Z,21.36
2022-10-13T12:26:20.603Z,21.23
2022-10-13T12:28:52.514Z,20.59
2022-10-13T12:31:24.286Z,20.95
2022-10-13T12:34:04.432Z,20.68
2022-10-13T12:36:32.980Z,20.27
2022-10-13T12:39:03.331Z,20.26
2022-10-13T12:41:34.442Z,20.27
2022-10-13T12:44:04.036Z,20.57
2022-10-13T12:46:47.931Z,20.94
2022-10-13T12:49:15.485Z,21.08
2022-10-13T12:51:43.879Z,21.21
2022-10-13T12:54:19.073Z,21.00
2022-10-13T12:56:45.624Z,21.30
2022-10-13T12:59:19.455Z,21.07
2022-10-13T13:01:52.855Z,20.97
2022-10-13T13:04:22.326Z,21.00
2022-10-13T13:07:03.513Z,20.96
2022-10-13T13:09:30.700Z,20.85
2022-10-13T13:12:26.842Z,20.85
2022-10-13T13:14:54.016Z,20.72
2022-10-13T13:20:21.715Z,20.21
2022-10-13T13:22:48.409Z,19.92
2022-10-13T13:25:15.414Z,19.86
2022-10-13T13:27:41.938Z,19.96
2022-10-13T13:30:13.090Z,20.23
2022-10-13T13:32:39.613Z,19.69
2022-10-13T13:35:07.183Z,20.13
2022-10-13T13:37:41.496Z,20.07
2022-10-13T13:40:14.759Z,20.13
2022-10-13T13:42:41.247Z,19.96
2022-10-13T13:45:12.024Z,19.80
2022-10-13T13:47:38.532Z,19.94
2022-10-13T13:50:14.247Z,20.03
2022-10-13T13:52:41.097Z,20.11
2022-10-13T13:55:08.092Z,20.45
2022-10-13T13:57:35.010Z,20.58
2022-10-13T14:00:01.565Z,20.42
2022-10-13T14:02:28.035Z,20.53
2022-10-13T14:04:54.734Z,20.31
2022-10-13T14:07:21.507Z,20.52
2022-10-13T14:09:48.240Z,20.74
2022-10-13T14:12:14.723Z,20.80
2022-10-13T14:14:41.357Z,20.66
2022-10-13T14:17:11.340Z,20.75
2022-10-13T14:19:38.006Z,20.76
2022-10-13T14:22:09.208Z,20.42
2022-10-13T14:24:36.069Z,20.29
2022-10-13T14:27:02.746Z,19.94
2022-10-13T14:29:29.419Z,19.93
2022-10-13T14:31:55.934Z,19.88
2022-10-13T14:34:22.507Z,19.99
2022-10-13T14:36:49.100Z,19.80
2022-10-13T14:39:15.788Z,19.79
2022-10-13T14:41:42.401Z,19.82
2022-10-13T14:44:13.296Z,19.99
2022-10-13T14:46:40.928Z,19.88
2022-10-13T14:49:07.501Z,19.97
2022-10-13T14:51:34.039Z,19.67
2022-10-13T14:54:00.675Z,19.76
2022-10-13T14:56:29.288Z,19.70
2022-10-13T14:59:01.291Z,19.74
2022-10-13T15:01:28.249Z,19.65
2022-10-13T15:03:55.225Z,19.33
2022-10-13T15:06:23.737Z,18.99
2022-10-13T15:08:50.717Z,19.05
2022-10-13T15:11:19.207Z,18.94
2022-10-13T15:13:45.717Z,19.06
2022-10-13T15:16:21.070Z,19.37
2022-10-13T15:18:48.266Z,19.48
2022-10-13T15:21:15.392Z,19.60
2022-10-13T15:23:42.445Z,19.63
2022-10-13T15:26:10.542Z,19.45
2022-10-13T15:28:39.551Z,19.58
2022-10-13T15:31:06.815Z,19.59
2022-10-13T15:33:33.685Z,19.66
2022-10-13T15:36:00.613Z,19.62
2022-10-13T15:38:27.429Z,19.42
2022-10-13T15:40:59.090Z,19.27
2022-10-13T15:43:25.558Z,19.20
2022-10-13T15:45:57.851Z,19.16
2022-10-13T15:48:27.888Z,19.30
2022-10-13T15:50:54.503Z,19.32
2022-10-13T15:53:21.051Z,19.35
2022-10-13T15:55:49.623Z,19.29
2022-10-13T15:58:16.636Z,19.11
2022-10-13T16:00:44.162Z,18.97
2022-10-13T16:03:18.111Z,18.82
2022-10-13T16:05:45.551Z,18.95
2022-10-13T16:08:12.756Z,18.89
2022-10-13T16:10:40.450Z,18.81
2022-10-13T16:13:07.568Z,18.69
2022-10-13T16:15:34.070Z,18.64
2022-10-13T16:18:00.594Z,18.60
2022-10-13T16:20:27.208Z,18.66
2022-10-13T16:22:54.073Z,18.61
2022-10-13T16:25:20.609Z,18.56
2022-10-13T16:27:47.101Z,18.36
2022-10-13T16:30:13.643Z,18.25
2022-10-13T16:32:40.339Z,18.35
2022-10-13T16:35:07.342Z,18.35
2022-10-13T16:37:33.933Z,18.37
2022-10-13T16:40:00.408Z,18.35
2022-10-13T16:42:26.962Z,18.41
2022-10-13T16:44:53.676Z,18.35
2022-10-13T16:47:20.477Z,18.44
2022-10-13T16:49:47.216Z,18.36
2022-10-13T16:52:13.745Z,18.10
2022-10-13T16:54:40.510Z,18.11
2022-10-13T16:57:07.008Z,18.18
2022-10-13T16:59:33.508Z,18.10
2022-10-13T17:01:59.964Z,18.12
2022-10-13T17:04:31.085Z,18.02
2022-10-13T17:06:59.426Z,17.97
2022-10-13T17:09:26.196Z,18.05
2022-10-13T17:11:52.807Z,17.91
2022-10-13T17:14:22.169Z,18.01
2022-10-13T17:16:48.742Z,17.78
2022-10-13T17:19:15.224Z,17.34
2022-10-13T17:21:43.063Z,17.40
2022-10-13T17:24:09.577Z,17.11
2022-10-13T17:26:36.144Z,17.02
2022-10-13T17:29:02.693Z,17.21
2022-10-13T17:31:29.240Z,17.30
2022-10-13T17:34:05.389Z,17.30
2022-10-13T17:36:32.171Z,17.01
2022-10-13T17:39:04.569Z,16.78
2022-10-13T17:41:31.191Z,16.90
2022-10-13T17:43:57.761Z,16.95
2022-10-13T17:46:38.742Z,16.82
2022-10-13T17:49:08.084Z,16.90
2022-10-13T17:51:34.828Z,16.78
2022-10-13T17:54:01.500Z,16.71
2022-10-13T17:56:28.587Z,16.73
2022-10-13T17:58:55.175Z,16.77
2022-10-13T18:01:26.869Z,16.81
2022-10-13T18:03:59.394Z,16.87
2022-10-13T18:06:33.829Z,16.79
2022-10-13T18:09:09.610Z,16.86
2022-10-13T18:11:36.401Z,16.91
2022-10-13T18:14:03.916Z,16.95
2022-10-13T18:16:30.531Z,16.98
2022-10-13T18:18:57.002Z,17.08
2022-10-13T18:21:24.126Z,17.15
2022-10-13T18:23:50.746Z,17.12
2022-10-13T18:26:19.227Z,17.09
2022-10-13T18:28:46.966Z,17.10
2022-10-13T18:31:15.888Z,17.01
2022-10-13T18:33:42.749Z,16.96
2022-10-13T18:36:15.791Z,17.09
2022-10-13T18:38:43.004Z,17.15
2022-10-13T18:41:09.532Z,17.32
2022-10-13T18:43:36.182Z,17.40
2022-10-13T18:46:03.214Z,17.42
2022-10-13T18:48:33.114Z,17.44
2022-10-13T18:51:17.011Z,17.46
2022-10-13T18:53:45.946Z,17.47
2022-10-13T18:56:17.442Z,17.38
2022-10-13T18:58:44.040Z,17.39
2022-10-13T19:01:12.535Z,17.34
2022-10-13T19:03:40.264Z,17.38
2022-10-13T19:06:13.973Z,17.23
2022-10-13T19:08:40.615Z,17.36
2022-10-13T19:11:13.573Z,17.05
2022-10-13T19:13:40.519Z,17.10
2022-10-13T19:16:07.365Z,17.04
2022-10-13T19:18:34.318Z,17.16
2022-10-13T19:21:01.006Z,17.22
2022-10-13T19:23:27.739Z,17.13
2022-10-13T19:25:54.253Z,16.66
2022-10-13T19:28:21.149Z,16.79
2022-10-13T19:30:47.889Z,16.82
2022-10-13T19:33:15.261Z,16.90
2022-10-13T19:35:43.863Z,17.00
2022-10-13T19:38:10.936Z,17.09
2022-10-13T19:40:42.429Z,17.07
2022-10-13T19:43:09.771Z,17.10
2022-10-13T19:45:36.548Z,17.07
2022-10-13T19:48:05.576Z,17.07
2022-10-13T19:50:33.784Z,17.06
2022-10-13T19:53:00.293Z,16.98
2022-10-13T19:55:26.776Z,16.96
2022-10-13T19:57:53.212Z,16.95
2022-10-13T20:00:19.802Z,16.93
2022-10-13T20:02:46.326Z,16.81
2022-10-13T20:05:12.814Z,16.85
2022-10-13T20:07:39.285Z,16.86
2022-10-13T20:10:06.331Z,16.84
2022-10-13T20:12:32.854Z,16.74
2022-10-13T20:14:59.313Z,16.51
2022-10-13T20:17:25.833Z,16.75
2022-10-13T20:19:52.326Z,16.59
2022-10-13T20:22:18.805Z,16.48
2022-10-13T20:24:45.375Z,16.47
2022-10-13T20:27:12.118Z,16.37
2022-10-13T20:29:38.602Z,16.43
2022-10-13T20:32:05.173Z,16.66
2022-10-13T20:34:31.616Z,16.72
2022-10-13T20:36:58.078Z,16.75
2022-10-13T20:39:24.577Z,16.79
2022-10-13T20:41:51.444Z,16.85
2022-10-13T20:44:17.906Z,16.94
2022-10-13T20:46:44.374Z,16.99
2022-10-13T20:49:12.615Z,17.00
2022-10-13T20:51:40.982Z,16.94
2022-10-13T20:54:07.515Z,16.90
2022-10-13T20:56:34.043Z,16.85
2022-10-13T20:59:05.563Z,16.90
2022-10-13T21:01:32.591Z,16.92
2022-10-13T21:03:59.170Z,16.92
2022-10-13T21:06:25.837Z,16.96
2022-10-13T21:08:52.656Z,16.94
2022-10-13T21:11:20.647Z,16.93
2022-10-13T21:13:47.369Z,16.92
2022-10-13T21:16:18.966Z,16.92
2022-10-13T21:18:46.858Z,16.96
2022-10-13T21:21:13.714Z,16.86
2022-10-13T21:23:40.148Z,16.87
2022-10-13T21:26:08.377Z,16.60
2022-10-13T21:28:37.763Z,16.30
2022-10-13T21:31:09.959Z,16.26
2022-10-13T21:33:38.334Z,16.34
2022-10-13T21:36:14.087Z,16.25
2022-10-13T21:38:41.331Z,16.36
2022-10-13T21:41:09.710Z,16.48
2022-10-13T21:43:36.218Z,16.53
2022-10-13T21:46:27.139Z,16.62
2022-10-13T21:49:04.696Z,16.70
2022-10-13T21:51:35.063Z,16.75
2022-10-13T21:54:03.880Z,16.79
2022-10-13T21:56:31.161Z,16.87
2022-10-13T21:58:58.262Z,16.88
2022-10-13T22:01:24.763Z,16.80
2022-10-13T22:03:56.287Z,16.88
2022-10-13T22:06:22.900Z,16.73
2022-10-13T22:08:50.919Z,16.63
2022-10-13T22:11:18.736Z,16.62
2022-10-13T22:13:45.322Z,16.69
2022-10-13T22:16:36.225Z,16.76
2022-10-13T22:19:03.406Z,16.80
2022-10-13T22:21:32.284Z,16.74
2022-10-13T22:24:01.080Z,16.71
2022-10-13T22:26:29.966Z,16.70
2022-10-13T22:28:58.032Z,16.63
2022-10-13T22:31:25.194Z,16.58
2022-10-13T22:33:51.834Z,16.56
2022-10-13T22:36:20.240Z,16.63
2022-10-13T22:38:48.307Z,16.61
2022-10-13T22:41:16.030Z,16.64
2022-10-13T22:43:43.177Z,16.69
2022-10-13T22:46:10.568Z,16.74
2022-10-13T22:48:40.515Z,16.79
2022-10-13T22:51:08.011Z,16.75
2022-10-13T22:53:34.705Z,16.75
2022-10-13T22:56:05.494Z,16.67
2022-10-13T22:58:32.084Z,16.75
2022-10-13T23:01:05.230Z,16.77
2022-10-13T23:03:31.726Z,16.71
2022-10-13T23:05:58.328Z,16.46
2022-10-13T23:08:25.136Z,16.32
2022-10-13T23:10:51.969Z,16.42
2022-10-13T23:13:18.668Z,16.49
2022-10-13T23:15:45.199Z,16.39
2022-10-13T23:18:11.647Z,16.46
2022-10-13T23:20:41.741Z,16.42
2022-10-13T23:23:09.113Z,16.59
2022-10-13T23:25:36.782Z,16.68
2022-10-13T23:28:03.602Z,16.77
2022-10-13T23:30:32.478Z,16.80
2022-10-13T23:32:59.323Z,16.81
2022-10-13T23:35:25.980Z,16.84
2022-10-13T23:37:52.488Z,16.90
2022-10-13T23:40:19.165Z,16.93
2022-10-13T23:42:45.838Z,16.90
2022-10-13T23:45:12.453Z,16.88
2022-10-13T23:47:38.917Z,16.85
2022-10-13T23:50:06.372Z,16.84
2022-10-13T23:52:32.906Z,16.88
2022-10-13T23:54:59.825Z,16.83
2022-10-13T23:57:26.320Z,16.89
2022-10-13T23:59:52.811Z,16.92
